Time;durP1;ratioP1;P1;durP2;ratioP2;P2;SDS_P1;SDS_P2;PMS_P1;PMS_P2;Temp;Humidity;BMP_temperature;BMP_pressure;BME280_temperature;BME280_humidity;BME280_pressure;Samples;Min_cycle;Max_cycle;Signal;HPM_P1;HPM_P2
2021/04/17 09:40:36;;;;;;;7.60;3.90;;;;;;;16.38;34.29;100263.25;5276306;23;20022;-63
2021/04/17 09:43:04;;;;;;;9.57;5.70;;;;;;;16.62;34.57;100277.19;5007652;28;20226;-63
2021/04/17 09:45:39;;;;;;;11.27;4.20;;;;;;;16.48;34.01;100233.25;5001590;28;20093;-63
2021/04/17 09:48:09;;;;;;;6.68;3.85;;;;;;;16.81;33.65;100264.28;5001663;28;20034;-63
2021/04/17 09:50:37;;;;;;;6.28;3.50;;;;;;;16.78;33.98;100217.31;5001655;28;20061;-63
2021/04/17 09:53:29;;;;;;;6.40;3.20;;;;;;;16.51;34.21;100279.34;5001746;28;20054;-64
2021/04/17 09:56:12;;;;;;;8.38;3.60;;;;;;;16.24;34.95;100286.44;5001717;28;20030;-64
2021/04/17 09:58:43;;;;;;;8.85;3.15;;;;;;;15.66;34.67;100238.72;5008798;28;20194;-64
2021/04/17 10:01:14;;;;;;;6.60;3.30;;;;;;;15.72;35.27;100276.81;5021064;28;20072;-64
2021/04/17 10:04:02;;;;;;;8.40;3.15;;;;;;;16.03;35.09;100267.97;5021099;28;20048;-63
2021/04/17 10:06:33;;;;;;;4.63;2.72;;;;;;;15.93;35.19;100256.13;5021113;28;20033;-64
2021/04/17 10:09:11;;;;;;;7.60;3.42;;;;;;;16.32;35.20;100260.88;5020947;28;20312;-65
2021/04/17 10:11:42;;;;;;;6.53;3.20;;;;;;;16.79;34.38;100263.50;5020835;28;20049;-63
2021/04/17 10:14:10;;;;;;;7.93;3.75;;;;;;;16.83;34.70;100246.78;5020762;28;20210;-62
2021/04/17 10:16:41;;;;;;;6.10;2.95;;;;;;;16.47;34.34;100251.59;5021062;28;20537;-63
2021/04/17 10:19:09;;;;;;;;;;;;;;;16.57;33.97;100260.81;5021516;28;20026;-63
2021/04/17 10:21:36;;;;;;;11.27;3.97;;;;;;;16.85;33.95;100262.41;5020866;28;19913;-63
2021/04/17 10:24:24;;;;;;;8.15;3.45;;;;;;;16.85;33.67;100265.88;5020998;28;20033;-64
2021/04/17 10:27:07;;;;;;;8.18;3.88;;;;;;;16.83;33.80;100262.47;5020753;28;20104;-64
2021/04/17 10:29:47;;;;;;;6.35;3.55;;;;;;;16.77;33.60;100261.84;5015930;28;20105;-64
2021/04/17 10:32:35;;;;;;;7.22;3.50;;;;;;;16.47;34.08;100210.63;5001356;28;20054;-65
2021/04/17 10:35:08;;;;;;;8.63;3.55;;;;;;;16.49;34.30;100234.09;5000935;28;20049;-64
2021/04/17 10:37:47;;;;;;;10.30;3.58;;;;;;;16.56;34.41;100251.28;5001173;28;20338;-65
2021/04/17 10:40:13;;;;;;;6.88;4.10;;;;;;;16.73;34.36;100258.47;5000753;28;20254;-65
2021/04/17 10:42:46;;;;;;;5.97;3.92;;;;;;;16.47;33.83;100208.00;4999643;28;20403;-66
2021/04/17 10:45:16;;;;;;;9.63;3.72;;;;;;;16.70;33.93;100201.91;4982540;28;20104;-65
2021/04/17 10:47:42;;;;;;;7.32;3.78;;;;;;;17.16;33.90;100246.41;5000452;28;20029;-64
2021/04/17 10:50:20;;;;;;;7.43;3.70;;;;;;;16.94;33.31;100195.81;5000881;28;20052;-66
2021/04/17 10:53:05;;;;;;;10.98;3.83;;;;;;;17.47;33.28;100245.13;5002145;28;20276;-66
2021/04/17 10:55:41;;;;;;;14.48;4.75;;;;;;;17.67;33.78;100240.84;5004267;28;20022;-64
2021/04/17 10:58:20;;;;;;;6.95;4.00;;;;;;;17.12;33.06;100191.63;5004214;28;20326;-65
2021/04/17 11:00:49;;;;;;;7.95;3.95;;;;;;;17.20;33.66;100245.38;5004227;28;20038;-64
2021/04/17 11:03:15;;;;;;;6.25;4.45;;;;;;;17.23;34.09;100229.53;5004230;28;20030;-66
2021/04/17 11:05:42;;;;;;;6.85;4.07;;;;;;;17.37;33.81;100239.44;5004553;28;20026;-64
2021/04/17 11:08:07;;;;;;;8.35;4.78;;;;;;;17.65;33.48;100233.06;5004401;28;20222;-65
2021/04/17 11:10:36;;;;;;;7.82;4.38;;;;;;;17.80;33.71;100214.97;5004151;28;20315;-64
2021/04/17 11:13:06;;;;;;;7.18;3.80;;;;;;;17.45;32.78;100193.75;5004213;28;20026;-65
2021/04/17 11:15:35;;;;;;;10.55;3.92;;;;;;;17.62;33.28;100222.72;5004301;28;20330;-64
2021/04/17 11:18:13;;;;;;;12.38;3.95;;;;;;;17.61;33.10;100223.63;5004373;28;20057;-65
2021/04/17 11:20:43;;;;;;;6.68;4.00;;;;;;;17.19;33.65;100229.72;5004063;28;20057;-65
2021/04/17 11:23:53;;;;;;;11.27;3.88;;;;;;;17.36;33.48;100237.72;5003614;28;20336;-65
2021/04/17 11:26:20;;;;;;;9.32;3.92;;;;;;;17.36;33.07;100229.88;5003911;28;20037;-64
2021/04/17 11:28:52;;;;;;;5.30;4.15;;;;;;;17.57;33.01;100207.19;5004111;28;20589;-64
2021/04/17 11:31:29;;;;;;;8.13;3.40;;;;;;;17.59;32.99;100189.63;5003745;28;20061;-65
2021/04/17 11:33:58;;;;;;;7.05;3.70;;;;;;;17.51;32.55;100223.16;5003760;28;20080;-64
2021/04/17 11:36:26;;;;;;;9.88;4.03;;;;;;;17.60;32.58;100220.16;5004013;28;20097;-64
2021/04/17 11:38:53;;;;;;;6.70;3.45;;;;;;;17.41;33.17;100211.34;5003506;28;20030;-65
2021/04/17 11:41:20;;;;;;;7.68;4.25;;;;;;;17.30;32.89;100219.66;5003674;28;20218;-65
2021/04/17 11:43:46;;;;;;;8.90;3.97;;;;;;;17.74;33.12;100203.88;5003645;28;20140;-66
2021/04/17 11:46:13;;;;;;;7.78;3.28;;;;;;;17.60;32.25;100200.97;5003771;28;20310;-66
2021/04/17 11:48:41;;;;;;;10.27;4.07;;;;;;;17.73;32.53;100155.00;5002749;28;20299;-65
2021/04/17 11:51:08;;;;;;;6.75;3.55;;;;;;;18.05;32.16;100199.91;5003588;28;20033;-65
2021/04/17 11:53:34;;;;;;;9.10;4.10;;;;;;;18.34;32.49;100194.28;5003710;28;20229;-65
2021/04/17 11:56:00;;;;;;;8.07;3.83;;;;;;;18.28;31.50;100193.66;5003199;28;20275;-65
2021/04/17 11:58:26;;;;;;;7.75;3.92;;;;;;;18.26;31.96;100198.13;4982813;28;20038;-65
2021/04/17 12:00:52;;;;;;;6.88;3.40;;;;;;;17.71;32.25;100221.47;4999331;28;20108;-67
2021/04/17 12:03:21;;;;;;;10.13;3.95;;;;;;;17.71;32.52;100201.34;5003239;28;20306;-64
2021/04/17 12:05:52;;;;;;;12.15;4.13;;;;;;;17.91;32.34;100213.66;5002417;28;20054;-65
2021/04/17 12:08:19;;;;;;;14.68;4.20;;;;;;;17.75;32.56;100209.94;5003137;28;20081;-65
2021/04/17 12:10:45;;;;;;;10.30;3.88;;;;;;;17.96;32.18;100208.19;5002822;28;20275;-64
2021/04/17 12:13:12;;;;;;;9.98;3.63;;;;;;;18.17;32.06;100184.56;5003135;28;20033;-66
2021/04/17 12:15:39;;;;;;;8.50;3.83;;;;;;;17.93;32.69;100182.97;5002550;28;20030;-65
2021/04/17 12:18:05;;;;;;;10.00;4.07;;;;;;;17.89;32.49;100180.53;5002704;28;20022;-65
2021/04/17 12:20:31;;;;;;;9.57;3.83;;;;;;;17.85;32.36;100184.19;5003172;28;20053;-64
2021/04/17 12:22:59;;;;;;;10.43;4.18;;;;;;;17.94;32.14;100168.09;5002945;28;20026;-65
2021/04/17 12:25:26;;;;;;;7.43;3.80;;;;;;;18.28;31.90;100200.66;5003011;28;20079;-65
2021/04/17 12:27:52;;;;;;;12.65;4.53;;;;;;;17.84;31.87;100178.13;5003025;28;20038;-65
2021/04/17 12:30:20;;;;;;;9.63;4.20;;;;;;;17.84;32.24;100177.25;5001150;28;20226;-65
2021/04/17 12:32:46;;;;;;;8.18;4.40;;;;;;;18.22;31.72;100179.97;4985276;28;20490;-64
2021/04/17 12:35:15;;;;;;;8.10;4.45;;;;;;;17.97;32.15;100164.50;5002591;28;20034;-64
2021/04/17 12:37:44;;;;;;;8.75;4.57;;;;;;;17.88;32.45;100156.06;5002452;28;20030;-63
2021/04/17 12:40:11;;;;;;;10.32;4.32;;;;;;;18.03;32.13;100167.69;5002590;28;20365;-64
2021/04/17 12:42:37;;;;;;;6.65;4.15;;;;;;;18.05;32.39;100170.25;5018611;28;20041;-64
2021/04/17 12:45:09;;;;;;;7.97;3.85;;;;;;;18.00;31.84;100154.72;5022365;28;20049;-64
2021/04/17 12:47:36;;;;;;;8.65;3.58;;;;;;;18.07;31.29;100148.28;5004618;28;20485;-64
2021/04/17 12:50:05;;;;;;;11.90;3.90;;;;;;;18.14;31.39;100172.44;5021992;28;20026;-65
2021/04/17 12:52:31;;;;;;;6.55;3.90;;;;;;;18.00;31.43;100144.25;5021983;28;20033;-64
2021/04/17 12:54:57;;;;;;;9.52;4.18;;;;;;;17.97;31.54;100165.34;5022022;28;20033;-64
2021/04/17 12:57:22;;;;;;;9.93;4.13;;;;;;;18.15;31.44;100160.19;5021886;28;20029;-64
2021/04/17 12:59:48;;;;;;;12.65;4.32;;;;;;;18.20;31.74;100150.34;5021800;28;20306;-64
2021/04/17 13:02:15;;;;;;;7.10;3.25;;;;;;;17.87;31.55;100156.16;5022007;28;20060;-64
2021/04/17 13:04:41;;;;;;;10.45;4.30;;;;;;;17.99;32.05;100147.78;5021829;28;20482;-64
2021/04/17 13:07:07;;;;;;;8.65;3.50;;;;;;;18.13;31.37;100152.41;5021895;28;20037;-64
2021/04/17 13:09:32;;;;;;;12.25;4.20;;;;;;;18.13;31.30;100143.66;5022003;28;20093;-64
2021/04/17 13:11:58;;;;;;;6.57;3.75;;;;;;;18.01;31.37;100145.94;5021761;28;20030;-65
2021/04/17 13:14:26;;;;;;;9.18;3.70;;;;;;;18.08;31.89;100157.00;5021753;28;20085;-65
2021/04/17 13:16:53;;;;;;;7.53;4.18;;;;;;;18.14;31.70;100150.63;5003095;28;20253;-65
2021/04/17 13:19:19;;;;;;;7.45;3.95;;;;;;;18.14;32.02;100146.22;5021507;28;20133;-62
2021/04/17 13:21:45;;;;;;;12.68;3.40;;;;;;;18.16;31.20;100147.03;5021650;28;20034;-64
2021/04/17 13:24:11;;;;;;;13.40;3.55;;;;;;;18.23;31.51;100148.44;5021630;28;20089;-64
2021/04/17 13:26:37;;;;;;;9.68;3.58;;;;;;;18.11;32.06;100146.38;5021358;28;20034;-66
2021/04/17 13:29:03;;;;;;;12.18;3.95;;;;;;;18.34;31.42;100150.59;5020435;28;20084;-64
2021/04/17 13:31:29;;;;;;;17.83;3.63;;;;;;;18.29;31.02;100140.28;5001756;28;20030;-64
2021/04/17 13:33:56;;;;;;;11.98;6.07;;;;;;;18.23;31.17;100144.97;5001971;28;20249;-64
2021/04/17 13:36:21;;;;;;;12.52;3.80;;;;;;;18.09;31.26;100146.44;5001461;28;20377;-65
2021/04/17 13:38:47;;;;;;;5.35;3.30;;;;;;;18.19;31.36;100164.38;5001772;28;20034;-63
2021/04/17 13:41:13;;;;;;;8.00;3.30;;;;;;;18.11;31.02;100162.09;5001591;28;20242;-65
2021/04/17 13:43:39;;;;;;;11.43;3.53;;;;;;;18.13;30.85;100143.66;5001565;28;20064;-63
2021/04/17 13:46:05;;;;;;;7.40;3.35;;;;;;;18.00;31.27;100164.34;5009122;28;20032;-64
2021/04/17 13:48:31;;;;;;;6.07;3.33;;;;;;;18.13;31.14;100170.75;5021255;28;20025;-62
2021/04/17 13:50:57;;;;;;;4.82;3.20;;;;;;;18.02;30.98;100155.50;5020987;28;20034;-64
2021/04/17 13:53:23;;;;;;;7.93;3.38;;;;;;;18.06;31.06;100143.97;5021272;28;20033;-64
2021/04/17 13:55:49;;;;;;;6.18;3.38;;;;;;;18.00;31.06;100153.88;5020763;28;20033;-63
2021/04/17 13:58:15;;;;;;;12.00;3.65;;;;;;;17.99;31.23;100153.03;5020946;28;20025;-64
2021/04/17 14:00:42;;;;;;;9.75;4.05;;;;;;;18.16;31.11;100152.25;5020748;28;20033;-63
2021/04/17 14:03:08;;;;;;;5.32;3.22;;;;;;;17.87;30.91;100150.91;5020988;28;20025;-63
2021/04/17 14:05:34;;;;;;;8.10;3.25;;;;;;;17.84;30.20;100145.81;5006561;28;20030;-64
2021/04/17 14:08:01;;;;;;;6.13;3.30;;;;;;;17.83;30.41;100147.59;5006886;28;20092;-63
2021/04/17 14:10:27;;;;;;;10.35;3.35;;;;;;;17.88;30.10;100144.75;5020596;28;20061;-64
2021/04/17 14:12:53;;;;;;;6.95;3.58;;;;;;;17.74;30.30;100134.88;5020251;28;20026;-61
2021/04/17 14:15:19;;;;;;;8.40;3.33;;;;;;;17.80;29.67;100137.25;5009213;28;20030;-63
2021/04/17 14:17:45;;;;;;;5.15;3.03;;;;;;;17.81;30.34;100143.31;5012500;28;20025;-64
2021/04/17 14:20:12;;;;;;;9.27;3.30;;;;;;;17.73;29.84;100131.41;5014700;28;20040;-64
2021/04/17 14:22:38;;;;;;;11.45;4.03;;;;;;;17.87;29.70;100137.81;5020153;28;20036;-63
2021/04/17 14:25:05;;;;;;;9.65;3.50;;;;;;;17.90;29.42;100137.66;5020539;28;20041;-64
2021/04/17 14:27:31;;;;;;;9.85;3.67;;;;;;;17.93;29.12;100134.97;5021779;28;20108;-64
2021/04/17 14:29:58;;;;;;;7.85;3.50;;;;;;;17.71;29.16;100135.00;5024215;28;20053;-63
2021/04/17 14:32:39;;;;;;;9.10;3.78;;;;;;;17.91;29.04;100142.91;5022874;28;20034;-63
2021/04/17 14:35:07;;;;;;;8.95;3.60;;;;;;;17.76;29.26;100123.41;5024325;28;20394;-63
2021/04/17 14:37:33;;;;;;;7.07;3.03;;;;;;;17.68;29.01;100117.66;5024451;28;20026;-65
2021/04/17 14:39:59;;;;;;;5.88;2.90;;;;;;;17.71;28.48;100121.91;5023948;28;20041;-65
2021/04/17 14:42:25;;;;;;;5.85;2.42;;;;;;;17.59;28.70;100124.16;5009219;28;20050;-66
2021/04/17 14:44:51;;;;;;;6.57;2.70;;;;;;;17.68;28.40;100116.81;5003494;28;20030;-62
2021/04/17 14:47:17;;;;;;;6.70;2.97;;;;;;;17.59;28.31;100126.78;5009926;28;20034;-63
2021/04/17 14:49:43;;;;;;;6.20;3.20;;;;;;;17.63;28.55;100113.53;5003929;28;20033;-61
2021/04/17 14:52:09;;;;;;;6.00;2.72;;;;;;;17.50;28.28;100113.22;5003795;28;20068;-62
2021/04/17 14:54:34;;;;;;;8.52;3.15;;;;;;;17.31;28.37;100108.78;4995072;28;20046;-61
2021/04/17 14:57:02;;;;;;;12.50;3.47;;;;;;;17.31;28.23;100074.75;4997561;28;20030;-61
2021/04/17 14:59:31;;;;;;;9.05;3.22;;;;;;;17.46;28.46;100116.88;5003680;28;20031;-60
2021/04/17 15:01:57;;;;;;;12.68;3.35;;;;;;;17.52;28.16;100116.63;5001031;28;20110;-62
2021/04/17 15:04:22;;;;;;;12.15;3.22;;;;;;;17.24;27.33;100128.28;5004255;28;20049;-63
2021/04/17 15:06:48;;;;;;;8.32;3.00;;;;;;;17.11;27.64;100124.47;5004215;28;20095;-61
2021/04/17 15:09:15;;;;;;;11.65;3.30;;;;;;;17.20;27.56;100121.47;5004285;28;20042;-61
2021/04/17 15:11:41;;;;;;;6.10;3.20;;;;;;;17.17;27.13;100142.53;5000437;28;20097;-61
2021/04/17 15:14:07;;;;;;;9.80;3.45;;;;;;;16.88;27.15;100123.66;4993906;28;20023;-59
2021/04/17 15:16:33;;;;;;;11.80;2.90;;;;;;;16.97;27.45;100118.03;4994626;28;20035;-59
2021/04/17 15:19:00;;;;;;;8.70;3.15;;;;;;;16.99;27.26;100113.59;5003652;28;20110;-59
2021/04/17 15:21:27;;;;;;;4.00;2.65;;;;;;;16.91;26.98;100115.66;4996569;28;20134;-58
2021/04/17 15:23:55;;;;;;;10.27;3.53;;;;;;;16.87;27.06;100135.00;5003826;28;20223;-60
2021/04/17 15:26:24;;;;;;;6.50;3.15;;;;;;;16.78;26.80;100130.97;5003986;28;20030;-61
2021/04/17 15:28:49;;;;;;;9.10;3.17;;;;;;;16.85;26.65;100119.34;5003540;28;20174;-59
2021/04/17 15:31:15;;;;;;;5.20;2.95;;;;;;;16.94;26.59;100110.31;5003901;28;20034;-59
2021/04/17 15:33:44;;;;;;;8.85;2.90;;;;;;;17.01;26.81;100109.13;4986664;28;20030;-60
2021/04/17 15:36:12;;;;;;;4.72;2.53;;;;;;;16.86;26.44;100120.19;5003886;28;20334;-61
2021/04/17 15:38:40;;;;;;;7.72;2.60;;;;;;;16.76;26.30;100124.97;5002871;28;20200;-59
2021/04/17 15:41:08;;;;;;;6.93;2.85;;;;;;;16.62;26.71;100107.22;5006616;28;20156;-59
2021/04/17 15:43:35;;;;;;;9.25;3.05;;;;;;;16.69;26.89;100121.75;5020251;28;20025;-59
2021/04/17 15:46:10;;;;;;;6.18;2.92;;;;;;;16.84;26.68;100146.41;5021514;28;20064;-59
2021/04/17 15:48:40;;;;;;;9.05;3.00;;;;;;;16.59;26.75;100078.56;5021814;28;20084;-59
2021/04/17 15:51:09;;;;;;;9.60;3.40;;;;;;;16.83;26.78;100117.72;5021230;28;20045;-60
2021/04/17 15:53:38;;;;;;;3.13;2.50;;;;;;;16.60;27.10;100114.25;5012378;28;20037;-60
2021/04/17 15:56:06;;;;;;;6.68;3.17;;;;;;;16.59;26.95;100120.41;5008940;28;20033;-60
2021/04/17 16:14:48;;;;;;;6.80;3.28;;;;;;;16.15;26.81;100131.66;5022324;28;20096;-63
2021/04/17 16:17:14;;;;;;;5.40;3.13;;;;;;;16.14;27.02;100131.72;5022255;28;20136;-61
2021/04/17 16:19:40;;;;;;;7.85;3.13;;;;;;;16.25;26.36;100126.94;5021841;28;20030;-60
2021/04/17 16:22:06;;;;;;;6.53;3.42;;;;;;;16.03;26.25;100132.09;5021975;28;20659;-61
2021/04/17 16:24:32;;;;;;;7.53;2.90;;;;;;;16.08;25.77;100142.41;5022015;28;20061;-61
2021/04/17 16:27:00;;;;;;;8.25;2.58;;;;;;;15.97;25.62;100137.56;5021999;28;20041;-61
2021/04/17 16:29:27;;;;;;;6.47;3.22;;;;;;;15.91;25.76;100148.25;5017514;28;20027;-60
2021/04/17 16:31:54;;;;;;;5.30;2.97;;;;;;;15.87;25.25;100153.53;5004625;28;20092;-61
2021/04/17 16:34:19;;;;;;;12.57;2.53;;;;;;;15.88;25.87;100143.97;5008179;28;20242;-60
2021/04/17 16:36:45;;;;;;;4.85;2.97;;;;;;;15.87;25.42;100157.94;5002332;28;20065;-61
2021/04/17 16:39:12;;;;;;;8.25;2.85;;;;;;;15.85;25.81;100149.31;5002037;28;20026;-60
2021/04/17 16:41:40;;;;;;;6.43;3.03;;;;;;;15.81;25.14;100145.09;5001627;28;20081;-62
2021/04/17 16:44:12;;;;;;;6.88;2.67;;;;;;;15.78;25.28;100150.41;5001770;28;20121;-62
2021/04/17 16:46:42;;;;;;;7.22;3.08;;;;;;;15.80;25.25;100166.91;5001813;28;20026;-61
2021/04/17 16:49:09;;;;;;;6.20;2.85;;;;;;;15.79;24.39;100162.56;5001717;28;20089;-62
2021/04/17 16:51:35;;;;;;;5.32;2.67;;;;;;;15.66;24.88;100155.16;5001646;28;20030;-62
2021/04/17 16:54:01;;;;;;;6.40;3.50;;;;;;;15.65;25.05;100150.81;5001464;28;20345;-61
2021/04/17 16:56:27;;;;;;;7.20;2.40;;;;;;;15.58;24.90;100154.56;5001324;28;20034;-63
2021/04/17 16:58:54;;;;;;;3.40;2.70;;;;;;;15.68;24.98;100155.94;5001568;28;20110;-61
2021/04/17 17:01:21;;;;;;;6.45;3.13;;;;;;;15.62;25.15;100148.31;4999948;28;20045;-62
2021/04/17 17:03:46;;;;;;;4.53;3.17;;;;;;;15.58;24.67;100151.94;5000217;28;20062;-61
2021/04/17 17:06:13;;;;;;;4.82;2.90;;;;;;;15.47;25.22;100136.63;5001398;28;20030;-60
2021/04/17 17:08:39;;;;;;;12.00;2.97;;;;;;;15.49;24.87;100158.34;5001531;28;20057;-61
2021/04/17 17:11:06;;;;;;;5.43;2.88;;;;;;;15.50;25.29;100156.56;5001794;28;20018;-62
2021/04/17 17:13:35;;;;;;;6.47;2.65;;;;;;;15.31;24.79;100159.81;5001198;28;20034;-63
2021/04/17 17:16:03;;;;;;;6.15;3.05;;;;;;;15.11;24.03;100117.88;5008675;28;20030;-63
2021/04/17 17:18:29;;;;;;;5.43;2.92;;;;;;;15.28;24.18;100157.31;5010172;28;20026;-62
2021/04/17 17:20:55;;;;;;;4.88;3.00;;;;;;;15.21;24.15;100165.41;5012345;28;20218;-64
2021/04/17 17:23:21;;;;;;;6.78;2.95;;;;;;;14.95;24.69;100122.72;5011530;28;20060;-62
2021/04/17 17:25:47;;;;;;;4.82;2.80;;;;;;;15.21;24.81;100157.56;5008358;28;20105;-63
2021/04/17 17:28:13;;;;;;;5.38;2.90;;;;;;;15.20;23.98;100172.34;5013759;28;20040;-62
2021/04/17 17:30:39;;;;;;;5.47;2.70;;;;;;;15.24;24.10;100173.97;5020702;28;20053;-63
2021/04/17 17:33:06;;;;;;;4.95;2.80;;;;;;;15.23;24.53;100174.84;5020146;28;20025;-62
2021/04/17 17:35:34;;;;;;;5.80;3.40;;;;;;;15.02;24.86;100182.50;5020665;28;20038;-63
2021/04/17 17:38:01;;;;;;;5.47;2.67;;;;;;;14.98;25.00;100167.84;5020551;28;20249;-63
2021/04/17 17:40:27;;;;;;;6.75;3.17;;;;;;;15.00;24.99;100170.38;5020574;28;20034;-64
2021/04/17 17:42:53;;;;;;;6.07;3.10;;;;;;;14.91;24.74;100161.09;5021034;28;20052;-62
2021/04/17 17:45:19;;;;;;;6.18;3.38;;;;;;;14.92;24.43;100172.38;5020285;28;20057;-61
2021/04/17 17:47:46;;;;;;;5.35;3.00;;;;;;;14.82;24.54;100171.81;5021098;28;20267;-64
2021/04/17 17:50:13;;;;;;;4.35;3.10;;;;;;;14.87;24.79;100171.69;5005663;28;20026;-63
2021/04/17 17:52:39;;;;;;;5.43;2.90;;;;;;;14.95;24.89;100172.28;5000828;28;20102;-63
2021/04/17 17:55:05;;;;;;;6.43;3.25;;;;;;;14.83;25.04;100173.53;4967428;28;20026;-64
2021/04/17 17:57:32;;;;;;;7.75;3.60;;;;;;;14.79;24.95;100174.53;5018876;28;20026;-63
2021/04/17 17:59:58;;;;;;;6.60;3.42;;;;;;;14.59;25.03;100175.97;5021108;28;20210;-63
2021/04/17 18:02:24;;;;;;;5.97;3.70;;;;;;;14.56;25.72;100157.78;5021716;28;20053;-63
2021/04/17 18:05:07;;;;;;;4.53;3.08;;;;;;;14.60;25.64;100179.41;5016242;28;20072;-64
2021/04/17 18:07:34;;;;;;;6.05;3.70;;;;;;;14.47;25.81;100187.59;5015390;28;20030;-62
2021/04/17 18:10:00;;;;;;;6.00;3.35;;;;;;;14.45;25.18;100178.09;5014730;28;20357;-62
2021/04/17 18:12:26;;;;;;;7.82;3.50;;;;;;;14.45;25.71;100181.59;5013697;28;20038;-63
2021/04/17 18:14:52;;;;;;;8.52;3.22;;;;;;;14.40;25.37;100182.63;5015478;28;20060;-62
2021/04/17 18:17:18;;;;;;;6.97;3.90;;;;;;;14.34;25.43;100168.03;5015112;28;20218;-63
2021/04/17 18:19:44;;;;;;;7.57;4.55;;;;;;;14.37;25.20;100175.75;5015887;28;20080;-63
2021/04/17 18:22:11;;;;;;;9.48;4.60;;;;;;;14.32;25.44;100162.84;5014684;28;20080;-64
2021/04/17 18:24:37;;;;;;;7.68;5.65;;;;;;;14.25;25.21;100176.97;5014553;28;20042;-64
2021/04/17 18:27:03;;;;;;;7.53;5.03;;;;;;;14.15;24.76;100172.88;4998309;28;20026;-63
2021/04/17 18:29:29;;;;;;;10.27;5.45;;;;;;;14.30;25.77;100167.25;5015252;28;20030;-62
2021/04/17 18:32:09;;;;;;;6.70;5.15;;;;;;;14.12;25.63;100189.47;5018531;28;20100;-63
2021/04/17 18:34:39;;;;;;;14.82;7.57;;;;;;;14.05;25.75;100180.13;5016517;28;20255;-62
2021/04/17 18:37:07;;;;;;;9.30;6.60;;;;;;;14.11;25.20;100168.69;4999085;28;20022;-62
2021/04/17 18:39:33;;;;;;;12.00;6.10;;;;;;;13.97;25.39;100169.06;5013905;28;20030;-64
2021/04/17 18:42:04;;;;;;;11.05;5.72;;;;;;;13.97;25.56;100164.69;5002801;28;20046;-63
2021/04/17 18:44:31;;;;;;;8.20;5.10;;;;;;;13.92;25.11;100171.81;4995005;28;20050;-61
2021/04/17 18:46:59;;;;;;;10.05;5.85;;;;;;;13.98;26.19;100179.44;4987044;28;20046;-62
2021/04/17 18:49:25;;;;;;;8.43;5.60;;;;;;;13.88;25.59;100177.13;4999312;28;20022;-63
2021/04/17 18:51:51;;;;;;;8.82;5.55;;;;;;;13.86;25.90;100200.59;4998241;28;20045;-63
2021/04/17 18:54:17;;;;;;;8.60;5.25;;;;;;;13.85;25.76;100185.84;5000207;28;20034;-61
2021/04/17 18:56:43;;;;;;;12.10;6.03;;;;;;;13.93;26.08;100204.75;4995653;28;20345;-64
2021/04/17 18:59:09;;;;;;;9.93;5.03;;;;;;;13.77;25.73;100206.06;4989463;28;20035;-61
2021/04/17 19:01:35;;;;;;;7.68;5.15;;;;;;;13.67;25.96;100208.03;4984965;28;20039;-62
2021/04/17 19:04:01;;;;;;;6.60;3.90;;;;;;;13.60;26.58;100211.69;4985251;28;20062;-64
2021/04/17 19:06:27;;;;;;;6.10;4.18;;;;;;;13.52;27.03;100206.66;5003648;28;20342;-63
2021/04/17 19:08:53;;;;;;;5.40;3.88;;;;;;;13.60;25.77;100198.69;5003853;28;20049;-62
2021/04/17 19:11:19;;;;;;;7.15;3.80;;;;;;;13.70;25.54;100204.50;5003401;28;20089;-62
2021/04/17 19:13:44;;;;;;;8.30;5.13;;;;;;;13.67;26.43;100200.22;5004276;28;20037;-63
2021/04/17 19:16:10;;;;;;;7.90;4.38;;;;;;;13.58;26.74;100203.06;5003765;28;20038;-61
2021/04/17 19:18:36;;;;;;;5.90;3.63;;;;;;;13.66;26.39;100208.91;5003950;28;20026;-62
2021/04/17 19:21:17;;;;;;;4.38;3.20;;;;;;;13.52;26.54;100200.63;4994602;28;20037;-61
2021/04/17 19:23:43;;;;;;;5.10;3.63;;;;;;;13.67;26.42;100209.75;4985773;28;20306;-61
2021/04/17 19:26:10;;;;;;;5.72;3.58;;;;;;;13.39;25.89;100210.47;4972829;28;20084;-62
2021/04/17 19:28:36;;;;;;;7.38;3.58;;;;;;;13.51;27.04;100218.00;4985994;28;20027;-62
2021/04/17 19:31:03;;;;;;;5.95;3.28;;;;;;;13.52;26.99;100217.06;4967742;28;20058;-63
2021/04/17 19:33:29;;;;;;;6.30;3.28;;;;;;;13.55;26.51;100221.34;4999104;28;20113;-63
2021/04/17 19:35:55;;;;;;;6.47;3.17;;;;;;;13.54;25.93;100220.50;4992368;28;20314;-61
2021/04/17 19:38:21;;;;;;;4.55;3.35;;;;;;;13.40;26.89;100231.25;4988755;28;20027;-61
2021/04/17 19:40:47;;;;;;;6.68;3.40;;;;;;;13.51;26.42;100219.72;4995870;28;20319;-63
2021/04/17 19:43:13;;;;;;;8.43;3.17;;;;;;;13.52;27.33;100219.69;5001408;28;20041;-60
2021/04/17 19:45:41;;;;;;;5.78;2.88;;;;;;;13.39;27.49;100213.06;5005287;28;20097;-60
2021/04/17 19:48:07;;;;;;;6.25;3.15;;;;;;;13.28;27.15;100208.97;5012695;28;20097;-61
2021/04/17 19:50:34;;;;;;;4.82;2.90;;;;;;;13.24;26.57;100220.34;5014560;28;20105;-59
2021/04/17 19:53:00;;;;;;;4.15;2.92;;;;;;;13.07;27.33;100225.09;5016460;28;20026;-61
2021/04/17 19:55:27;;;;;;;4.45;2.90;;;;;;;13.18;27.82;100223.09;5009631;28;20498;-60
2021/04/17 19:57:53;;;;;;;7.32;3.15;;;;;;;13.27;27.39;100217.66;5014326;28;20028;-60
2021/04/17 20:00:19;;;;;;;5.60;3.10;;;;;;;13.32;27.81;100216.69;5011370;28;20033;-59
2021/04/17 20:02:46;;;;;;;4.65;3.15;;;;;;;13.26;27.16;100231.53;5022757;28;20041;-60
2021/04/17 20:05:14;;;;;;;9.05;3.03;;;;;;;12.82;26.98;100177.97;4993467;28;20254;-60
2021/04/17 20:07:40;;;;;;;4.88;2.72;;;;;;;13.09;27.01;100228.50;5002988;28;20033;-60
2021/04/17 20:10:07;;;;;;;4.68;2.80;;;;;;;12.94;27.15;100237.50;5003232;28;20641;-60
2021/04/17 20:12:34;;;;;;;5.53;3.20;;;;;;;12.87;27.50;100241.97;5013200;28;20026;-60
2021/04/17 20:15:00;;;;;;;6.93;2.58;;;;;;;12.99;27.77;100233.03;5022627;28;20035;-61
2021/04/17 20:17:27;;;;;;;4.72;2.90;;;;;;;12.78;27.27;100234.38;5010565;28;20056;-61
2021/04/17 20:19:53;;;;;;;5.20;2.65;;;;;;;12.75;27.96;100245.72;5010139;28;20215;-61
2021/04/17 20:22:19;;;;;;;5.15;2.70;;;;;;;12.87;27.52;100244.56;5019528;28;20318;-59
2021/04/17 20:24:47;;;;;;;4.35;2.90;;;;;;;12.87;27.36;100233.31;5022483;28;20072;-59
2021/04/17 20:27:14;;;;;;;3.20;2.90;;;;;;;12.66;27.63;100240.69;5021986;28;20121;-59
2021/04/17 20:29:40;;;;;;;4.78;2.97;;;;;;;12.67;27.58;100242.41;5022153;28;20029;-61
2021/04/17 20:32:06;;;;;;;5.68;2.97;;;;;;;12.64;27.61;100237.28;5022572;28;20041;-60
2021/04/17 20:34:33;;;;;;;7.10;2.70;;;;;;;12.51;27.68;100235.81;5003562;28;20093;-60
2021/04/17 20:37:00;;;;;;;7.70;2.88;;;;;;;12.54;28.50;100239.22;5002731;28;20038;-60
2021/04/17 20:39:27;;;;;;;6.32;3.22;;;;;;;12.58;28.00;100238.25;5002431;28;20038;-60
2021/04/17 20:41:54;;;;;;;3.88;2.80;;;;;;;12.64;27.79;100241.59;5008642;28;20045;-61
2021/04/17 20:44:21;;;;;;;5.45;2.88;;;;;;;12.46;28.08;100232.47;5021503;28;20064;-62
2021/04/17 20:46:48;;;;;;;4.72;2.92;;;;;;;12.52;28.35;100238.38;5022141;28;20072;-61
2021/04/17 20:49:29;;;;;;;8.90;2.88;;;;;;;12.43;28.40;100228.19;5006206;28;20257;-61
2021/04/17 20:51:55;;;;;;;5.47;2.90;;;;;;;12.31;28.68;100233.59;5006555;28;20317;-61
2021/04/17 20:54:21;;;;;;;5.15;3.00;;;;;;;12.31;28.54;100237.06;5007705;28;20321;-62
2021/04/17 20:56:47;;;;;;;5.25;3.08;;;;;;;12.33;28.55;100231.84;5002239;28;20027;-63
2021/04/17 20:59:13;;;;;;;5.90;2.90;;;;;;;12.29;29.15;100230.19;5014994;28;20108;-61
2021/04/17 21:01:39;;;;;;;4.03;2.60;;;;;;;12.11;28.59;100224.47;5015609;28;20029;-63
2021/04/17 21:04:06;;;;;;;8.38;3.17;;;;;;;12.16;28.54;100222.63;5021940;28;20087;-61
2021/04/17 21:06:32;;;;;;;3.38;2.80;;;;;;;12.27;28.48;100219.84;5021735;28;20037;-62
2021/04/17 21:08:58;;;;;;;3.97;2.67;;;;;;;12.33;28.96;100226.66;5021621;28;20030;-61
2021/04/17 21:11:24;;;;;;;5.32;3.25;;;;;;;12.19;29.14;100229.53;5004662;28;20322;-61
2021/04/17 21:13:52;;;;;;;4.90;3.05;;;;;;;12.33;29.10;100232.69;5010178;28;20129;-62
2021/04/17 21:16:18;;;;;;;6.13;3.20;;;;;;;12.14;29.20;100227.03;5001979;28;20093;-60
2021/04/17 21:18:44;;;;;;;4.90;3.20;;;;;;;12.19;28.95;100227.75;5002458;28;20338;-62
2021/04/17 21:21:10;;;;;;;4.30;3.15;;;;;;;12.06;28.93;100213.31;5021011;28;20022;-62
2021/04/17 21:23:36;;;;;;;6.32;2.92;;;;;;;12.08;28.64;100208.94;5013595;28;20589;-62